createdAt,value
2022-08-24T00:01:52.868Z,14.73
2022-08-24T00:04:19.568Z,14.58
2022-08-24T00:06:46.362Z,15.08
2022-08-24T00:09:13.011Z,15.02
2022-08-24T00:11:39.597Z,15.00
2022-08-24T00:14:06.465Z,15.08
2022-08-24T00:16:33.197Z,14.97
2022-08-24T00:18:59.871Z,15.18
2022-08-24T00:21:26.485Z,14.76
2022-08-24T00:23:53.596Z,15.01
2022-08-24T00:26:28.876Z,15.27
2022-08-24T00:28:56.583Z,14.87
2022-08-24T00:31:23.297Z,15.01
2022-08-24T00:33:50.061Z,14.86
2022-08-24T00:36:17.064Z,15.05
2022-08-24T00:38:43.763Z,14.89
2022-08-24T00:41:10.362Z,14.87
2022-08-24T00:43:37.053Z,14.94
2022-08-24T00:46:38.896Z,14.80
2022-08-24T00:49:10.747Z,14.64
2022-08-24T00:51:43.321Z,14.30
2022-08-24T00:54:15.213Z,14.28
2022-08-24T00:56:47.736Z,14.61
2022-08-24T00:59:20.735Z,14.47
2022-08-24T01:01:49.977Z,14.21
2022-08-24T01:04:23.332Z,14.40
2022-08-24T01:06:50.203Z,14.05
2022-08-24T01:09:17.098Z,13.79
2022-08-24T01:11:45.092Z,14.35
2022-08-24T01:14:11.785Z,14.07
2022-08-24T01:16:39.199Z,14.00
2022-08-24T01:19:17.311Z,14.31
2022-08-24T01:21:54.356Z,13.85
2022-08-24T01:24:21.394Z,14.07
2022-08-24T01:26:50.342Z,14.34
2022-08-24T01:29:23.856Z,14.03
2022-08-24T01:31:51.028Z,13.92
2022-08-24T01:34:17.995Z,13.92
2022-08-24T01:36:51.634Z,14.41
2022-08-24T01:39:21.289Z,14.42
2022-08-24T01:41:49.195Z,14.28
2022-08-24T01:44:16.341Z,14.01
2022-08-24T01:46:44.724Z,14.16
2022-08-24T01:49:12.289Z,14.12
2022-08-24T01:51:39.345Z,14.16
2022-08-24T01:54:07.263Z,13.94
2022-08-24T01:56:35.229Z,14.00
2022-08-24T01:59:06.737Z,14.13
2022-08-24T02:01:40.878Z,14.15
2022-08-24T02:04:09.815Z,13.86
2022-08-24T02:06:38.302Z,13.51
2022-08-24T02:09:08.062Z,13.85
2022-08-24T02:11:37.012Z,13.59
2022-08-24T02:14:07.545Z,13.52
2022-08-24T02:16:34.876Z,13.49
2022-08-24T02:19:03.286Z,13.68
2022-08-24T02:21:30.112Z,13.19
2022-08-24T02:23:56.764Z,12.80
2022-08-24T02:26:24.019Z,12.96
2022-08-24T02:28:57.113Z,13.16
2022-08-24T02:31:26.066Z,12.99
2022-08-24T02:33:52.835Z,13.05
2022-08-24T02:36:25.042Z,13.34
2022-08-24T02:38:55.239Z,12.88
2022-08-24T02:41:23.155Z,12.71
2022-08-24T02:43:49.995Z,12.67
2022-08-24T02:46:22.910Z,12.71
2022-08-24T02:48:58.118Z,13.15
2022-08-24T02:51:44.100Z,12.80
2022-08-24T02:54:15.584Z,13.03
2022-08-24T02:56:44.656Z,12.86
2022-08-24T02:59:11.362Z,13.09
2022-08-24T03:01:38.133Z,12.78
2022-08-24T03:04:05.545Z,12.94
2022-08-24T03:06:32.406Z,12.74
2022-08-24T03:08:59.124Z,12.92
2022-08-24T03:11:28.260Z,12.38
2022-08-24T03:13:58.746Z,12.64
2022-08-24T03:16:29.826Z,12.45
2022-08-24T03:18:56.646Z,12.18
2022-08-24T03:21:26.138Z,12.20
2022-08-24T03:23:52.871Z,12.37
2022-08-24T03:26:20.699Z,11.88
2022-08-24T03:28:47.389Z,11.76
2022-08-24T03:31:17.012Z,11.88
2022-08-24T03:33:44.698Z,12.01
2022-08-24T03:36:14.047Z,12.25
2022-08-24T03:38:41.996Z,12.47
2022-08-24T03:41:09.322Z,12.53
2022-08-24T03:43:38.969Z,12.60
2022-08-24T03:46:07.758Z,12.22
2022-08-24T03:48:36.647Z,12.39
2022-08-24T03:51:03.411Z,12.27
2022-08-24T03:53:31.406Z,12.13
2022-08-24T03:55:58.858Z,12.10
2022-08-24T03:58:26.668Z,12.11
2022-08-24T04:00:56.010Z,12.10
2022-08-24T04:03:23.397Z,12.06
2022-08-24T04:05:52.296Z,11.81
2022-08-24T04:08:20.949Z,11.59
2022-08-24T04:10:48.464Z,11.77
2022-08-24T04:13:15.185Z,11.95
2022-08-24T04:15:43.166Z,12.03
2022-08-24T04:18:13.167Z,11.61
2022-08-24T04:20:43.719Z,10.96
2022-08-24T04:23:15.114Z,11.87
2022-08-24T04:25:44.714Z,12.19
2022-08-24T04:28:13.281Z,12.14
2022-08-24T04:30:42.415Z,12.00
2022-08-24T04:33:13.329Z,11.68
2022-08-24T04:35:43.234Z,11.68
2022-08-24T04:38:10.145Z,11.82
2022-08-24T04:40:42.544Z,12.04
2022-08-24T04:43:19.093Z,12.06
2022-08-24T04:45:48.423Z,11.85
2022-08-24T04:48:16.087Z,11.63
2022-08-24T04:50:43.951Z,12.00
2022-08-24T04:53:13.037Z,12.00
2022-08-24T04:55:48.462Z,11.85
2022-08-24T04:58:18.474Z,12.09
2022-08-24T05:00:45.987Z,12.32
2022-08-24T05:03:13.579Z,11.92
2022-08-24T05:05:42.144Z,11.77
2022-08-24T05:08:09.025Z,11.97
2022-08-24T05:10:38.734Z,11.89
2022-08-24T05:13:06.042Z,12.15
2022-08-24T05:15:34.130Z,12.71
2022-08-24T05:18:00.864Z,12.68
2022-08-24T05:20:28.237Z,12.57
2022-08-24T05:22:57.411Z,13.05
2022-08-24T05:25:24.892Z,12.95
2022-08-24T05:27:51.739Z,12.79
2022-08-24T05:30:18.453Z,12.83
2022-08-24T05:32:45.117Z,13.05
2022-08-24T05:35:12.252Z,13.33
2022-08-24T05:37:40.182Z,13.74
2022-08-24T05:40:17.382Z,13.74
2022-08-24T05:42:48.271Z,13.53
2022-08-24T05:45:16.126Z,13.71
2022-08-24T05:47:43.393Z,13.83
2022-08-24T05:50:25.842Z,14.24
2022-08-24T05:52:52.573Z,14.08
2022-08-24T05:55:20.454Z,14.09
2022-08-24T05:57:47.289Z,13.93
2022-08-24T06:00:19.829Z,14.58
2022-08-24T06:02:49.812Z,14.93
2022-08-24T06:05:19.641Z,14.59
2022-08-24T06:07:52.646Z,14.80
2022-08-24T06:10:36.467Z,14.53
2022-08-24T06:13:05.916Z,14.87
2022-08-24T06:15:33.194Z,15.03
2022-08-24T06:17:59.860Z,15.43
2022-08-24T06:20:29.815Z,15.44
2022-08-24T06:22:57.442Z,15.48
2022-08-24T06:25:31.070Z,15.61
2022-08-24T06:27:58.910Z,15.72
2022-08-24T06:30:30.165Z,15.84
2022-08-24T06:33:02.235Z,16.18
2022-08-24T06:35:51.035Z,16.15
2022-08-24T06:38:19.910Z,16.57
2022-08-24T06:40:47.448Z,17.11
2022-08-24T06:43:14.362Z,17.09
2022-08-24T06:46:07.399Z,17.47
2022-08-24T06:48:39.921Z,17.39
2022-08-24T06:51:15.542Z,17.39
2022-08-24T06:53:43.288Z,17.52
2022-08-24T06:56:12.192Z,18.02
2022-08-24T06:58:39.222Z,18.20
2022-08-24T07:01:17.692Z,18.40
2022-08-24T07:03:45.849Z,18.47
2022-08-24T07:08:58.392Z,18.68
2022-08-24T07:11:25.888Z,18.45
2022-08-24T07:13:52.926Z,18.68
2022-08-24T07:16:21.221Z,18.90
2022-08-24T07:18:51.859Z,18.99
2022-08-24T07:21:23.961Z,18.99
2022-08-24T07:23:56.215Z,19.48
2022-08-24T07:26:25.527Z,19.06
2022-08-24T07:29:06.571Z,19.30
2022-08-24T07:31:46.398Z,19.65
2022-08-24T07:34:35.138Z,19.43
2022-08-24T07:37:01.994Z,19.68
2022-08-24T07:39:29.605Z,19.05
2022-08-24T07:42:14.073Z,18.91
2022-08-24T07:44:44.913Z,18.97
2022-08-24T07:47:36.343Z,19.34
2022-08-24T07:50:00.442Z,19.09
2022-08-24T07:52:27.215Z,19.27
2022-08-24T07:54:54.098Z,19.34
2022-08-24T07:57:20.971Z,19.06
2022-08-24T07:59:47.706Z,19.22
2022-08-24T08:02:14.797Z,19.18
2022-08-24T08:04:47.049Z,19.43
2022-08-24T08:07:13.885Z,19.74
2022-08-24T08:09:40.787Z,20.01
2022-08-24T08:12:10.701Z,20.36
2022-08-24T08:14:45.951Z,20.19
2022-08-24T08:17:12.820Z,20.16
2022-08-24T08:19:39.418Z,20.52
2022-08-24T08:22:06.872Z,20.68
2022-08-24T08:24:41.518Z,21.01
2022-08-24T08:27:08.285Z,20.89
2022-08-24T08:29:39.433Z,21.17
2022-08-24T08:32:08.779Z,21.95
2022-08-24T08:34:35.431Z,21.41
2022-08-24T08:37:02.818Z,21.59
2022-08-24T08:39:31.264Z,21.63
2022-08-24T08:42:17.252Z,21.89
2022-08-24T08:44:55.916Z,22.17
2022-08-24T08:50:53.702Z,21.65
2022-08-24T08:53:57.867Z,22.05
2022-08-24T08:57:16.725Z,22.09
2022-08-24T09:00:17.631Z,22.42
2022-08-24T09:03:25.604Z,22.22
2022-08-24T09:06:26.200Z,22.06
2022-08-24T09:09:06.937Z,21.80
2022-08-24T09:12:11.330Z,22.60
2022-08-24T09:15:17.331Z,22.94
2022-08-24T09:17:50.236Z,23.25
2022-08-24T09:20:45.872Z,22.77
2022-08-24T09:23:15.639Z,22.83
2022-08-24T09:25:56.868Z,22.46
2022-08-24T09:28:35.909Z,23.08
2022-08-24T09:34:12.070Z,23.12
2022-08-24T09:36:41.947Z,22.91
2022-08-24T09:39:42.852Z,22.74
2022-08-24T09:42:25.064Z,23.05
2022-08-24T09:45:36.615Z,23.33
2022-08-24T09:48:27.248Z,23.69
2022-08-24T09:51:12.900Z,23.70
2022-08-24T09:54:04.461Z,23.81
2022-08-24T09:56:51.475Z,23.38
2022-08-24T09:59:41.663Z,23.76
2022-08-24T10:02:29.630Z,24.14
2022-08-24T10:05:09.561Z,23.47
2022-08-24T10:08:12.770Z,23.97
2022-08-24T10:10:54.907Z,24.04
2022-08-24T10:13:51.354Z,24.33
2022-08-24T10:16:38.218Z,24.24
2022-08-24T10:19:23.223Z,24.33
2022-08-24T10:22:12.895Z,24.02
2022-08-24T10:25:07.394Z,24.76
2022-08-24T10:27:52.695Z,25.21
2022-08-24T10:31:01.282Z,24.03
2022-08-24T10:33:31.163Z,24.41
2022-08-24T10:36:52.267Z,25.01
2022-08-24T10:40:01.844Z,25.04
2022-08-24T10:43:03.541Z,24.46
2022-08-24T10:45:58.243Z,24.51
2022-08-24T10:48:45.094Z,24.47
2022-08-24T10:51:35.209Z,24.93
2022-08-24T10:54:02.232Z,24.41
2022-08-24T10:56:51.657Z,24.85
2022-08-24T10:59:43.694Z,24.56
2022-08-24T11:02:27.114Z,24.96
2022-08-24T11:04:58.955Z,25.27
2022-08-24T11:07:26.527Z,25.76
2022-08-24T11:09:56.731Z,25.77
2022-08-24T11:12:44.121Z,25.54
2022-08-24T11:15:25.959Z,25.96
2022-08-24T11:17:57.845Z,25.81
2022-08-24T11:20:26.559Z,25.98
2022-08-24T11:23:15.500Z,25.36
2022-08-24T11:25:53.330Z,25.39
2022-08-24T11:28:36.672Z,26.00
2022-08-24T11:31:03.633Z,25.58
2022-08-24T11:33:34.523Z,25.44
2022-08-24T11:36:02.416Z,26.15
2022-08-24T11:38:32.874Z,26.15
2022-08-24T11:41:14.054Z,25.81
2022-08-24T11:43:59.215Z,25.85
2022-08-24T11:46:48.150Z,26.06
2022-08-24T11:49:20.961Z,26.62
2022-08-24T11:52:18.000Z,26.28
2022-08-24T11:55:12.877Z,26.32
2022-08-24T11:58:00.732Z,26.60
2022-08-24T12:00:43.635Z,26.04
2022-08-24T12:03:39.129Z,26.31
2022-08-24T12:06:35.079Z,26.29
2022-08-24T12:09:13.471Z,26.12
2022-08-24T12:11:52.027Z,25.71
2022-08-24T12:14:30.730Z,24.98
2022-08-24T12:17:23.256Z,25.31
2022-08-24T12:19:55.692Z,26.24
2022-08-24T12:22:23.374Z,25.77
2022-08-24T12:24:55.542Z,26.03
2022-08-24T12:27:38.340Z,26.03
2022-08-24T12:30:11.523Z,26.79
2022-08-24T12:32:56.091Z,27.03
2022-08-24T12:35:28.835Z,26.98
2022-08-24T12:38:15.850Z,26.68
2022-08-24T12:40:54.396Z,26.76
2022-08-24T12:43:42.207Z,26.78
2022-08-24T12:46:13.683Z,25.96
2022-08-24T12:49:01.101Z,26.47
2022-08-24T12:51:40.039Z,26.92
2022-08-24T12:54:33.287Z,26.60
2022-08-24T12:57:35.565Z,26.19
2022-08-24T13:00:13.264Z,26.16
2022-08-24T13:02:47.893Z,25.90
2022-08-24T13:05:19.626Z,26.26
2022-08-24T13:07:49.015Z,25.52
2022-08-24T13:10:38.156Z,24.47
2022-08-24T13:13:04.839Z,26.07
2022-08-24T13:15:31.357Z,26.02
2022-08-24T13:18:07.012Z,25.94
2022-08-24T13:20:37.070Z,25.87
2022-08-24T13:23:12.885Z,25.86
2022-08-24T13:25:57.911Z,26.07
2022-08-24T13:28:24.516Z,25.76
2022-08-24T13:31:10.148Z,25.89
2022-08-24T13:33:42.621Z,26.03
2022-08-24T13:36:27.753Z,26.19
2022-08-24T13:39:00.702Z,25.91
2022-08-24T13:42:23.177Z,25.97
2022-08-24T13:45:20.652Z,25.77
2022-08-24T13:48:14.966Z,25.99
2022-08-24T13:51:15.783Z,25.69
2022-08-24T13:53:54.129Z,26.23
2022-08-24T13:56:33.102Z,26.46
2022-08-24T13:59:13.342Z,26.54
2022-08-24T14:01:55.294Z,26.68
2022-08-24T14:04:27.789Z,26.06
2022-08-24T14:07:00.656Z,26.00
2022-08-24T14:09:46.000Z,25.74
2022-08-24T14:12:23.564Z,25.31
2022-08-24T14:15:28.039Z,26.17
2022-08-24T14:18:15.820Z,26.16
2022-08-24T14:20:53.155Z,26.06
2022-08-24T14:23:32.293Z,26.07
2022-08-24T14:26:33.342Z,26.17
2022-08-24T14:29:15.369Z,26.25
2022-08-24T14:32:11.939Z,26.37
2022-08-24T14:34:56.732Z,26.27
2022-08-24T14:37:56.157Z,24.07
2022-08-24T14:40:34.861Z,25.76
2022-08-24T14:43:10.983Z,26.06
2022-08-24T14:45:41.078Z,26.10
2022-08-24T14:48:24.763Z,25.98
2022-08-24T14:51:20.439Z,25.39
2022-08-24T14:53:50.283Z,26.25
2022-08-24T14:56:40.513Z,26.55
2022-08-24T14:59:33.168Z,26.38
2022-08-24T15:02:16.439Z,26.49
2022-08-24T15:04:48.432Z,25.67
2022-08-24T15:07:32.175Z,26.56
2022-08-24T15:10:01.052Z,26.73
2022-08-24T15:12:39.081Z,24.56
2022-08-24T15:15:34.614Z,26.52
2022-08-24T15:18:10.356Z,26.22
2022-08-24T15:21:01.897Z,26.21
2022-08-24T15:23:50.221Z,25.86
2022-08-24T15:26:37.006Z,25.75
2022-08-24T15:29:32.297Z,25.89
2022-08-24T15:32:06.857Z,25.77
2022-08-24T15:34:42.483Z,25.91
2022-08-24T15:37:10.186Z,25.85
2022-08-24T15:39:36.927Z,25.21
2022-08-24T15:42:13.938Z,25.95
2022-08-24T15:44:44.370Z,25.72
2022-08-24T15:47:20.097Z,25.60
2022-08-24T15:49:58.018Z,25.69
2022-08-24T15:52:46.120Z,25.86
2022-08-24T15:55:34.091Z,25.55
2022-08-24T15:58:22.239Z,25.49
2022-08-24T16:00:51.174Z,24.77
2022-08-24T16:03:42.529Z,25.65
2022-08-24T16:06:33.714Z,25.78
2022-08-24T16:09:15.641Z,25.47
2022-08-24T16:11:48.738Z,25.52
2022-08-24T16:14:26.927Z,25.18
2022-08-24T16:16:54.905Z,25.00
2022-08-24T16:19:32.316Z,25.10
2022-08-24T16:22:08.551Z,25.28
2022-08-24T16:24:38.074Z,25.05
2022-08-24T16:27:11.092Z,24.78
2022-08-24T16:29:37.917Z,25.12
2022-08-24T16:32:26.681Z,24.65
2022-08-24T16:35:01.629Z,24.95
2022-08-24T16:37:28.258Z,24.49
2022-08-24T16:39:54.965Z,24.61
2022-08-24T16:42:29.607Z,24.86
2022-08-24T16:44:58.463Z,24.19
2022-08-24T16:47:26.690Z,24.03
2022-08-24T16:49:53.837Z,24.46
2022-08-24T16:52:21.199Z,24.04
2022-08-24T16:54:48.642Z,23.59
2022-08-24T16:57:23.864Z,23.84
2022-08-24T16:59:52.532Z,24.20
2022-08-24T17:02:20.907Z,23.72
2022-08-24T17:04:48.542Z,24.02
2022-08-24T17:07:20.643Z,23.80
2022-08-24T17:09:47.974Z,23.53
2022-08-24T17:12:14.988Z,23.29
2022-08-24T17:14:42.447Z,23.58
2022-08-24T17:17:13.895Z,22.81
2022-08-24T17:19:43.407Z,23.58
2022-08-24T17:22:15.975Z,22.80
2022-08-24T17:24:43.463Z,23.14
2022-08-24T17:27:10.716Z,21.63
2022-08-24T17:29:37.465Z,22.76
2022-08-24T17:32:04.585Z,23.05
2022-08-24T17:34:31.410Z,22.90
2022-08-24T17:37:00.396Z,22.73
2022-08-24T17:39:27.847Z,22.87
2022-08-24T17:41:56.586Z,23.06
2022-08-24T17:44:26.839Z,22.46
2022-08-24T17:46:56.911Z,21.84
2022-08-24T17:49:23.755Z,21.87
2022-08-24T17:51:50.483Z,22.32
2022-08-24T17:54:17.777Z,22.01
2022-08-24T17:56:44.908Z,22.28
2022-08-24T17:59:22.728Z,22.46
2022-08-24T18:01:50.558Z,21.84
2022-08-24T18:04:17.826Z,22.42
2022-08-24T18:06:44.964Z,21.98
2022-08-24T18:09:18.463Z,22.07
2022-08-24T18:11:45.263Z,22.03
2022-08-24T18:14:12.042Z,21.83
2022-08-24T18:16:38.845Z,22.09
2022-08-24T18:19:05.793Z,22.25
2022-08-24T18:21:32.511Z,21.20
2022-08-24T18:24:01.082Z,20.98
2022-08-24T18:26:30.317Z,21.77
2022-08-24T18:29:00.416Z,22.04
2022-08-24T18:31:30.516Z,21.95
2022-08-24T18:33:57.133Z,21.51
2022-08-24T18:36:23.834Z,21.42
2022-08-24T18:38:50.521Z,21.41
2022-08-24T18:41:17.517Z,21.29
2022-08-24T18:43:44.602Z,20.78
2022-08-24T18:46:11.735Z,20.56
2022-08-24T18:48:38.455Z,19.56
2022-08-24T18:51:05.587Z,20.50
2022-08-24T18:53:32.754Z,20.64
2022-08-24T18:56:08.138Z,21.06
2022-08-24T18:58:37.341Z,20.90
2022-08-24T19:01:06.853Z,20.77
2022-08-24T19:03:34.395Z,20.47
2022-08-24T19:06:01.019Z,21.19
2022-08-24T19:08:27.998Z,20.84
2022-08-24T19:10:55.680Z,21.11
2022-08-24T19:13:22.411Z,21.20
2022-08-24T19:15:50.031Z,21.17
2022-08-24T19:18:18.851Z,20.83
2022-08-24T19:20:49.331Z,20.53
2022-08-24T19:23:24.176Z,20.36
2022-08-24T19:25:52.295Z,21.04
2022-08-24T19:28:20.431Z,20.41
2022-08-24T19:30:48.014Z,20.31
2022-08-24T19:33:25.871Z,20.72
2022-08-24T19:35:53.116Z,20.23
2022-08-24T19:38:25.140Z,20.57
2022-08-24T19:40:53.564Z,20.36
2022-08-24T19:43:23.784Z,20.03
2022-08-24T19:45:51.067Z,20.32
2022-08-24T19:48:17.667Z,19.65
2022-08-24T19:50:44.606Z,20.10
2022-08-24T19:53:11.943Z,19.64
2022-08-24T19:55:38.881Z,19.90
2022-08-24T19:58:15.945Z,20.55
2022-08-24T20:00:51.714Z,20.05
2022-08-24T20:03:18.768Z,20.16
2022-08-24T20:05:45.565Z,20.09
2022-08-24T20:08:15.810Z,19.84
2022-08-24T20:10:42.358Z,20.13
2022-08-24T20:13:10.187Z,20.07
2022-08-24T20:15:40.024Z,19.82
2022-08-24T20:18:06.777Z,19.95
2022-08-24T20:20:33.720Z,20.09
2022-08-24T20:23:00.722Z,20.09
2022-08-24T20:25:27.341Z,19.60
2022-08-24T20:28:12.205Z,18.91
2022-08-24T20:30:40.922Z,19.37
2022-08-24T20:33:15.645Z,19.17
2022-08-24T20:35:43.937Z,19.36
2022-08-24T20:38:14.538Z,18.98
2022-08-24T20:40:41.381Z,18.74
2022-08-24T20:43:08.045Z,19.30
2022-08-24T20:45:34.960Z,18.56
2022-08-24T20:48:04.982Z,19.64
2022-08-24T20:50:37.134Z,19.12
2022-08-24T20:53:04.270Z,19.37
2022-08-24T20:55:31.019Z,19.14
2022-08-24T20:57:59.175Z,19.01
2022-08-24T21:00:26.179Z,18.95
2022-08-24T21:02:52.809Z,19.18
2022-08-24T21:05:19.609Z,18.54
2022-08-24T21:07:46.329Z,18.88
2022-08-24T21:10:13.771Z,18.94
2022-08-24T21:12:40.409Z,18.43
2022-08-24T21:15:12.977Z,18.36
2022-08-24T21:17:41.581Z,18.81
2022-08-24T21:20:10.034Z,18.85
2022-08-24T21:22:36.863Z,18.46
2022-08-24T21:25:09.388Z,18.53
2022-08-24T21:27:38.086Z,18.43
2022-08-24T21:30:07.059Z,17.95
2022-08-24T21:32:33.979Z,18.61
2022-08-24T21:35:00.723Z,18.00
2022-08-24T21:37:27.504Z,18.37
2022-08-24T21:40:00.676Z,15.85
2022-08-24T21:42:29.963Z,16.33
2022-08-24T21:44:57.600Z,17.83
2022-08-24T21:47:24.581Z,16.71
2022-08-24T21:49:51.187Z,18.18
2022-08-24T21:52:18.055Z,18.19
2022-08-24T21:54:44.808Z,17.60
2022-08-24T21:57:12.117Z,17.96
2022-08-24T21:59:39.329Z,18.08
2022-08-24T22:02:06.230Z,18.13
2022-08-24T22:04:33.799Z,17.63
2022-08-24T22:07:00.770Z,17.65
2022-08-24T22:09:27.506Z,17.61
2022-08-24T22:11:56.486Z,16.77
2022-08-24T22:14:23.205Z,17.30
2022-08-24T22:16:49.831Z,17.32
2022-08-24T22:19:16.425Z,17.15
2022-08-24T22:21:47.714Z,17.14
2022-08-24T22:24:16.040Z,16.69
2022-08-24T22:26:44.160Z,16.81
2022-08-24T22:29:11.254Z,16.83
2022-08-24T22:31:41.311Z,16.40
2022-08-24T22:34:19.469Z,17.16
2022-08-24T22:36:48.683Z,16.67
2022-08-24T22:39:15.624Z,16.94
2022-08-24T22:41:42.631Z,17.00
2022-08-24T22:44:09.529Z,16.97
2022-08-24T22:46:36.716Z,17.51
2022-08-24T22:49:05.022Z,17.46
2022-08-24T22:51:35.063Z,16.99
2022-08-24T22:54:01.748Z,17.03
2022-08-24T22:56:32.978Z,16.96
2022-08-24T22:59:02.437Z,16.91
2022-08-24T23:01:33.386Z,17.02
2022-08-24T23:04:02.378Z,16.85
2022-08-24T23:06:29.609Z,16.92
2022-08-24T23:08:56.525Z,16.65
2022-08-24T23:11:23.353Z,16.91
2022-08-24T23:13:51.354Z,16.67
2022-08-24T23:16:18.007Z,16.80
2022-08-24T23:18:44.729Z,16.65
2022-08-24T23:21:14.503Z,17.08
2022-08-24T23:23:41.193Z,16.88
2022-08-24T23:26:07.844Z,16.87
2022-08-24T23:28:39.018Z,16.78
2022-08-24T23:31:07.818Z,16.91
2022-08-24T23:33:38.142Z,16.29
2022-08-24T23:36:13.272Z,15.90
2022-08-24T23:38:41.287Z,16.49
2022-08-24T23:41:13.899Z,16.57
2022-08-24T23:43:42.030Z,16.47
2022-08-24T23:46:10.966Z,16.66
2022-08-24T23:48:39.001Z,16.50
2022-08-24T23:51:12.631Z,16.40
2022-08-24T23:53:43.148Z,16.45
2022-08-24T23:56:12.910Z,16.54
2022-08-24T23:58:40.461Z,16.07
